KTBN/TBN METAR and TAF weather

Enter ICAO airport designator
Station Type Date Time Source
KTBN METAR 2022/12/04 11:55 UTC NOAA

KTBN 041155Z AUTO 16007KT 10SM OVC085 M01/M09 A3031 RMK AO2 SLP279 T10091091 11009 21035 57015 $


Station Type Date Time Source
KTBN Decoded METAR 2022/12/04 11:55 UTC NOAA

Fort Leonard Wood, MO, United States (KTBN) 37-44N 092-08W
Dec 04, 2022 - 06:55 AM EST / 2022.12.04 1155 UTC
Wind: from the SSE (160 degrees) at 8 MPH (7 KT):0
Visibility: 10 mile(s):0
Sky conditions: overcast
Temperature: 30.4 F (-0.9 C)
Windchill: 23 F (-5 C):1
Dew Point: 15.6 F (-9.1 C)
Relative Humidity: 53%
Pressure (altimeter): 30.31 in. Hg (1026 hPa)
Pressure tendency: 0.04 inches (1.5 hPa) lower than three hours ago
ob: KTBN 041155Z AUTO 16007KT 10SM OVC085 M01/M09 A3031 RMK AO2 SLP279 T10091091 11009 21035 57015
cycle: 12

Station Type Date Time Source
KTBN TAF 2022/12/03 00:21 UTC NOAA

TAF TAF COR KTBN 030016Z 0300/0404 19015G25KT 9999 BKN020 OVC027 520053 QNH2982INS
BECMG 0305/0306 31010G20KT 9000 DZ BKN022 OVC029 QNH3007INS
BECMG 0308/0309 32012KT 9999 NSW FEW350 510023 QNH3028INS
BECMG 0323/0324 VRB06KT 9999 SCT160 OVC230 QNH3043INS LAST NO AMNDS AFT 03/04Z NEXT 05/14Z TX14/0302Z TNM01/0314Z

Example: see airport list